sensor_id;sensor_type;location;lat;lon;timestamp;pressure;altitude;pressure_sealevel;temperature;humidity
69574;BME280;62840;52.366;5.980;2024-01-10T00:00:53;103232.94;;;-3.45;58.73
69574;BME280;62840;52.366;5.980;2024-01-10T00:03:19;103235.53;;;-3.45;58.89
69574;BME280;62840;52.366;5.980;2024-01-10T00:05:45;103228.56;;;-3.46;58.86
69574;BME280;62840;52.366;5.980;2024-01-10T00:08:11;103227.72;;;-3.45;59.02
69574;BME280;62840;52.366;5.980;2024-01-10T00:10:37;103219.81;;;-3.48;58.86
69574;BME280;62840;52.366;5.980;2024-01-10T00:13:03;103229.34;;;-3.51;59.10
69574;BME280;62840;52.366;5.980;2024-01-10T00:15:32;103224.16;;;-3.51;59.14
69574;BME280;62840;52.366;5.980;2024-01-10T00:17:58;103232.84;;;-3.52;59.15
69574;BME280;62840;52.366;5.980;2024-01-10T00:20:23;103220.63;;;-3.53;59.20
69574;BME280;62840;52.366;5.980;2024-01-10T00:22:49;103212.81;;;-3.54;59.23
69574;BME280;62840;52.366;5.980;2024-01-10T00:25:15;103215.41;;;-3.54;59.29
69574;BME280;62840;52.366;5.980;2024-01-10T00:27:41;103224.97;;;-3.53;59.35
69574;BME280;62840;52.366;5.980;2024-01-10T00:30:08;103213.66;;;-3.57;59.29
69574;BME280;62840;52.366;5.980;2024-01-10T00:32:36;103210.13;;;-3.59;59.40
69574;BME280;62840;52.366;5.980;2024-01-10T00:35:03;103212.72;;;-3.60;59.59
69574;BME280;62840;52.366;5.980;2024-01-10T00:37:29;103209.19;;;-3.62;59.56
69574;BME280;62840;52.366;5.980;2024-01-10T00:39:55;103215.25;;;-3.65;59.80
69574;BME280;62840;52.366;5.980;2024-01-10T00:42:21;103214.34;;;-3.67;59.66
69574;BME280;62840;52.366;5.980;2024-01-10T00:44:47;103215.19;;;-3.68;59.56
69574;BME280;62840;52.366;5.980;2024-01-10T00:47:13;103215.19;;;-3.68;59.86
69574;BME280;62840;52.366;5.980;2024-01-10T00:49:41;103213.44;;;-3.69;59.87
69574;BME280;62840;52.366;5.980;2024-01-10T00:52:07;103207.34;;;-3.71;59.87
69574;BME280;62840;52.366;5.980;2024-01-10T00:54:33;103216.03;;;-3.72;59.92
69574;BME280;62840;52.366;5.980;2024-01-10T00:57:01;103214.25;;;-3.73;60.03
69574;BME280;62840;52.366;5.980;2024-01-10T00:59:27;103225.47;;;-3.77;59.85
69574;BME280;62840;52.366;5.980;2024-01-10T01:01:53;103208.94;;;-3.79;60.05
69574;BME280;62840;52.366;5.980;2024-01-10T01:04:19;103218.50;;;-3.81;60.28
69574;BME280;62840;52.366;5.980;2024-01-10T01:06:47;103211.47;;;-3.85;60.29
69574;BME280;62840;52.366;5.980;2024-01-10T01:09:13;103204.47;;;-3.86;60.21
69574;BME280;62840;52.366;5.980;2024-01-10T01:11:39;103207.06;;;-3.89;60.45
69574;BME280;62840;52.366;5.980;2024-01-10T01:14:05;103200.03;;;-3.94;60.25
69574;BME280;62840;52.366;5.980;2024-01-10T01:16:31;103200.94;;;-3.91;60.42
69574;BME280;62840;52.366;5.980;2024-01-10T01:18:56;103207.88;;;-3.90;60.46
69574;BME280;62840;52.366;5.980;2024-01-10T01:21:22;103200.97;;;-3.90;60.28
69574;BME280;62840;52.366;5.980;2024-01-10T01:23:51;103195.72;;;-3.91;60.54
69574;BME280;62840;52.366;5.980;2024-01-10T01:26:17;103193.09;;;-3.93;60.44
69574;BME280;62840;52.366;5.980;2024-01-10T01:28:43;103198.25;;;-3.96;60.73
69574;BME280;62840;52.366;5.980;2024-01-10T01:31:08;103190.47;;;-3.95;60.57
69574;BME280;62840;52.366;5.980;2024-01-10T01:33:34;103199.13;;;-3.97;60.51
69574;BME280;62840;52.366;5.980;2024-01-10T01:36:00;103197.31;;;-4.00;60.75
69574;BME280;62840;52.366;5.980;2024-01-10T01:38:26;103196.50;;;-3.99;60.51
69574;BME280;62840;52.366;5.980;2024-01-10T01:40:55;103193.88;;;-3.99;60.47
69574;BME280;62840;52.366;5.980;2024-01-10T01:43:22;103183.47;;;-3.99;60.41
69574;BME280;62840;52.366;5.980;2024-01-10T01:45:51;103188.72;;;-3.96;60.30
69574;BME280;62840;52.366;5.980;2024-01-10T01:48:18;103190.47;;;-3.95;60.46
69574;BME280;62840;52.366;5.980;2024-01-10T01:50:46;103183.50;;;-3.96;60.41
69574;BME280;62840;52.366;5.980;2024-01-10T01:53:14;103191.31;;;-3.97;60.45
69574;BME280;62840;52.366;5.980;2024-01-10T01:55:40;103182.59;;;-3.98;60.71
69574;BME280;62840;52.366;5.980;2024-01-10T01:58:10;103172.13;;;-4.01;60.58
69574;BME280;62840;52.366;5.980;2024-01-10T02:00:37;103178.19;;;-4.02;60.67
69574;BME280;62840;52.366;5.980;2024-01-10T02:03:04;103171.22;;;-4.03;60.87
69574;BME280;62840;52.366;5.980;2024-01-10T02:05:30;103176.44;;;-4.03;60.61
69574;BME280;62840;52.366;5.980;2024-01-10T02:07:56;103166.88;;;-4.04;60.66
69574;BME280;62840;52.366;5.980;2024-01-10T02:10:22;103174.69;;;-4.04;60.68
69574;BME280;62840;52.366;5.980;2024-01-10T02:12:50;103165.94;;;-4.07;60.79
69574;BME280;62840;52.366;5.980;2024-01-10T02:15:18;103164.19;;;-4.07;60.67
69574;BME280;62840;52.366;5.980;2024-01-10T02:17:44;103158.97;;;-4.10;60.60
69574;BME280;62840;52.366;5.980;2024-01-10T02:20:11;103160.69;;;-4.10;60.76
69574;BME280;62840;52.366;5.980;2024-01-10T02:22:38;103151.94;;;-4.14;60.74
69574;BME280;62840;52.366;5.980;2024-01-10T02:25:08;103153.69;;;-4.15;60.77
69574;BME280;62840;52.366;5.980;2024-01-10T02:27:35;103147.59;;;-4.15;60.85
69574;BME280;62840;52.366;5.980;2024-01-10T02:30:03;103158.03;;;-4.15;60.88
69574;BME280;62840;52.366;5.980;2024-01-10T02:32:30;103156.28;;;-4.15;60.88
69574;BME280;62840;52.366;5.980;2024-01-10T02:34:57;103145.88;;;-4.13;61.01
69574;BME280;62840;52.366;5.980;2024-01-10T02:37:23;103145.06;;;-4.09;60.72
69574;BME280;62840;52.366;5.980;2024-01-10T02:39:49;103143.34;;;-4.07;60.83
69574;BME280;62840;52.366;5.980;2024-01-10T02:42:18;103139.84;;;-4.09;60.76
69574;BME280;62840;52.366;5.980;2024-01-10T02:44:44;103134.63;;;-4.09;60.92
69574;BME280;62840;52.366;5.980;2024-01-10T02:47:11;103136.41;;;-4.08;60.84
69574;BME280;62840;52.366;5.980;2024-01-10T02:49:39;103132.03;;;-4.10;60.76
69574;BME280;62840;52.366;5.980;2024-01-10T02:52:05;103132.88;;;-4.11;60.78
69574;BME280;62840;52.366;5.980;2024-01-10T02:54:31;103134.59;;;-4.12;61.06
69574;BME280;62840;52.366;5.980;2024-01-10T02:56:57;103136.31;;;-4.14;60.78
69574;BME280;62840;52.366;5.980;2024-01-10T02:59:26;103138.03;;;-4.13;60.78
69574;BME280;62840;52.366;5.980;2024-01-10T03:01:52;103134.56;;;-4.15;60.92
69574;BME280;62840;52.366;5.980;2024-01-10T03:04:18;103127.63;;;-4.13;60.77
69574;BME280;62840;52.366;5.980;2024-01-10T03:06:44;103129.41;;;-4.12;60.57
69574;BME280;62840;52.366;5.980;2024-01-10T03:09:09;103125.91;;;-4.11;60.70
69574;BME280;62840;52.366;5.980;2024-01-10T03:11:35;103121.59;;;-4.10;60.63
69574;BME280;62840;52.366;5.980;2024-01-10T03:14:02;103119.00;;;-4.09;60.62
69574;BME280;62840;52.366;5.980;2024-01-10T03:16:32;103120.78;;;-4.08;60.83
69574;BME280;62840;52.366;5.980;2024-01-10T03:18:58;103128.59;;;-4.08;60.50
69574;BME280;62840;52.366;5.980;2024-01-10T03:21:24;103119.94;;;-4.05;60.79
69574;BME280;62840;52.366;5.980;2024-01-10T03:23:50;103124.28;;;-4.04;60.74
69574;BME280;62840;52.366;5.980;2024-01-10T03:26:16;103121.69;;;-4.04;60.51
69574;BME280;62840;52.366;5.980;2024-01-10T03:28:42;103124.31;;;-4.03;60.34
69574;BME280;62840;52.366;5.980;2024-01-10T03:31:08;103115.59;;;-4.05;60.71
69574;BME280;62840;52.366;5.980;2024-01-10T03:33:38;103114.75;;;-4.02;60.66
69574;BME280;62840;52.366;5.980;2024-01-10T03:36:05;103115.63;;;-4.02;60.40
69574;BME280;62840;52.366;5.980;2024-01-10T03:38:32;103117.41;;;-4.01;60.58
69574;BME280;62840;52.366;5.980;2024-01-10T03:40:58;103115.63;;;-4.02;60.36
69574;BME280;62840;52.366;5.980;2024-01-10T03:43:24;103113.03;;;-4.02;60.56
69574;BME280;62840;52.366;5.980;2024-01-10T03:45:49;103116.53;;;-4.00;60.50
69574;BME280;62840;52.366;5.980;2024-01-10T03:48:15;103103.47;;;-4.03;60.28
69574;BME280;62840;52.366;5.980;2024-01-10T03:50:44;103107.81;;;-4.03;60.54
69574;BME280;62840;52.366;5.980;2024-01-10T03:53:10;103110.38;;;-4.05;60.54
69574;BME280;62840;52.366;5.980;2024-01-10T03:55:36;103112.16;;;-4.04;60.57
69574;BME280;62840;52.366;5.980;2024-01-10T03:58:01;103107.75;;;-4.06;60.46
69574;BME280;62840;52.366;5.980;2024-01-10T04:00:28;103110.38;;;-4.05;60.60
69574;BME280;62840;52.366;5.980;2024-01-10T04:02:54;103110.38;;;-4.05;60.65
69574;BME280;62840;52.366;5.980;2024-01-10T04:05:20;103113.00;;;-4.05;60.37
69574;BME280;62840;52.366;5.980;2024-01-10T04:07:48;103113.84;;;-4.06;60.62
69574;BME280;62840;52.366;5.980;2024-01-10T04:10:14;103119.06;;;-4.06;60.73
69574;BME280;62840;52.366;5.980;2024-01-10T04:12:40;103118.16;;;-4.06;60.63
69574;BME280;62840;52.366;5.980;2024-01-10T04:15:07;103112.06;;;-4.10;60.63
69574;BME280;62840;52.366;5.980;2024-01-10T04:17:33;103106.84;;;-4.10;60.52
69574;BME280;62840;52.366;5.980;2024-01-10T04:19:59;103105.94;;;-4.12;60.67
69574;BME280;62840;52.366;5.980;2024-01-10T04:22:25;103106.78;;;-4.13;60.71
69574;BME280;62840;52.366;5.980;2024-01-10T04:24:56;103103.31;;;-4.15;60.80
69574;BME280;62840;52.366;5.980;2024-01-10T04:27:22;103099.78;;;-4.17;60.72
69574;BME280;62840;52.366;5.980;2024-01-10T04:29:48;103102.41;;;-4.17;60.69
69574;BME280;62840;52.366;5.980;2024-01-10T04:32:14;103109.31;;;-4.18;60.77
69574;BME280;62840;52.366;5.980;2024-01-10T04:34:40;103107.56;;;-4.19;60.88
69574;BME280;62840;52.366;5.980;2024-01-10T04:37:06;103098.00;;;-4.21;60.86
69574;BME280;62840;52.366;5.980;2024-01-10T04:39:32;103098.81;;;-4.24;60.75
69574;BME280;62840;52.366;5.980;2024-01-10T04:42:02;103089.25;;;-4.26;60.79
69574;BME280;62840;52.366;5.980;2024-01-10T04:44:28;103097.91;;;-4.24;60.67
69574;BME280;62840;52.366;5.980;2024-01-10T04:46:54;103100.56;;;-4.23;60.70
69574;BME280;62840;52.366;5.980;2024-01-10T04:49:20;103085.81;;;-4.22;60.85
69574;BME280;62840;52.366;5.980;2024-01-10T04:51:46;103087.53;;;-4.23;60.66
69574;BME280;62840;52.366;5.980;2024-01-10T04:54:12;103087.56;;;-4.21;60.70
69574;BME280;62840;52.366;5.980;2024-01-10T04:56:38;103089.31;;;-4.20;60.75
69574;BME280;62840;52.366;5.980;2024-01-10T04:59:08;103087.56;;;-4.21;60.59
69574;BME280;62840;52.366;5.980;2024-01-10T05:01:33;103084.06;;;-4.23;60.73
69574;BME280;62840;52.366;5.980;2024-01-10T05:04:00;103086.69;;;-4.22;60.72
69574;BME280;62840;52.366;5.980;2024-01-10T05:06:25;103091.00;;;-4.22;60.55
69574;BME280;62840;52.366;5.980;2024-01-10T05:08:51;103088.41;;;-4.22;60.65
69574;BME280;62840;52.366;5.980;2024-01-10T05:11:17;103101.44;;;-4.22;60.66
69574;BME280;62840;52.366;5.980;2024-01-10T05:13:43;103092.72;;;-4.24;60.81
69574;BME280;62840;52.366;5.980;2024-01-10T05:16:12;103090.09;;;-4.26;60.83
69574;BME280;62840;52.366;5.980;2024-01-10T05:18:38;103094.44;;;-4.26;60.74
69574;BME280;62840;52.366;5.980;2024-01-10T05:21:04;103092.69;;;-4.27;60.79
69574;BME280;62840;52.366;5.980;2024-01-10T05:23:30;103078.81;;;-4.26;60.79
69574;BME280;62840;52.366;5.980;2024-01-10T05:25:56;103082.22;;;-4.30;60.70
69574;BME280;62840;52.366;5.980;2024-01-10T05:28:22;103083.09;;;-4.30;60.65
69574;BME280;62840;52.366;5.980;2024-01-10T05:30:47;103076.16;;;-4.29;60.79
69574;BME280;62840;52.366;5.980;2024-01-10T05:33:16;103073.53;;;-4.29;60.70
69574;BME280;62840;52.366;5.980;2024-01-10T05:35:42;103077.88;;;-4.30;60.57
69574;BME280;62840;52.366;5.980;2024-01-10T05:38:08;103071.81;;;-4.30;60.75
69574;BME280;62840;52.366;5.980;2024-01-10T05:40:34;103064.81;;;-4.31;60.50
69574;BME280;62840;52.366;5.980;2024-01-10T05:42:59;103074.38;;;-4.32;60.63
69574;BME280;62840;52.366;5.980;2024-01-10T05:45:25;103072.69;;;-4.30;60.58
69574;BME280;62840;52.366;5.980;2024-01-10T05:47:51;103075.25;;;-4.31;60.59
69574;BME280;62840;52.366;5.980;2024-01-10T05:50:20;103071.81;;;-4.30;60.54
69574;BME280;62840;52.366;5.980;2024-01-10T05:52:46;103066.56;;;-4.32;60.19
69574;BME280;62840;52.366;5.980;2024-01-10T05:55:12;103064.78;;;-4.35;60.41
69574;BME280;62840;52.366;5.980;2024-01-10T05:57:38;103069.13;;;-4.35;60.20
69574;BME280;62840;52.366;5.980;2024-01-10T06:00:06;103058.72;;;-4.35;60.17
69574;BME280;62840;52.366;5.980;2024-01-10T06:02:32;103054.38;;;-4.35;60.06
69574;BME280;62840;52.366;5.980;2024-01-10T06:04:58;103053.50;;;-4.35;60.12
69574;BME280;62840;52.366;5.980;2024-01-10T06:07:26;103052.59;;;-4.36;59.97
69574;BME280;62840;52.366;5.980;2024-01-10T06:09:52;103047.41;;;-4.36;60.13
69574;BME280;62840;52.366;5.980;2024-01-10T06:12:18;103036.97;;;-4.36;59.88
69574;BME280;62840;52.366;5.980;2024-01-10T06:14:44;103042.19;;;-4.36;59.80
69574;BME280;62840;52.366;5.980;2024-01-10T06:17:10;103036.09;;;-4.36;59.86
69574;BME280;62840;52.366;5.980;2024-01-10T06:19:36;103031.75;;;-4.37;59.80
69574;BME280;62840;52.366;5.980;2024-01-10T06:22:02;103030.03;;;-4.37;59.74
69574;BME280;62840;52.366;5.980;2024-01-10T06:24:30;103038.72;;;-4.38;60.08
69574;BME280;62840;52.366;5.980;2024-01-10T06:26:56;103042.19;;;-4.36;59.71
69574;BME280;62840;52.366;5.980;2024-01-10T06:29:22;103049.16;;;-4.35;59.74
69574;BME280;62840;52.366;5.980;2024-01-10T06:31:48;103057.00;;;-4.33;60.02
69574;BME280;62840;52.366;5.980;2024-01-10T06:34:14;103050.91;;;-4.33;59.93
69574;BME280;62840;52.366;5.980;2024-01-10T06:36:40;103053.50;;;-4.33;59.79
69574;BME280;62840;52.366;5.980;2024-01-10T06:39:06;103042.25;;;-4.32;59.85
69574;BME280;62840;52.366;5.980;2024-01-10T06:41:37;103039.66;;;-4.32;59.78
69574;BME280;62840;52.366;5.980;2024-01-10T06:44:03;103042.25;;;-4.32;59.63
69574;BME280;62840;52.366;5.980;2024-01-10T06:46:29;103033.56;;;-4.31;59.74
69574;BME280;62840;52.366;5.980;2024-01-10T06:48:54;103044.06;;;-4.28;59.62
69574;BME280;62840;52.366;5.980;2024-01-10T06:51:20;103040.53;;;-4.30;59.76
69574;BME280;62840;52.366;5.980;2024-01-10T06:53:46;103050.97;;;-4.30;59.73
69574;BME280;62840;52.366;5.980;2024-01-10T06:56:12;103049.16;;;-4.35;59.48
69574;BME280;62840;52.366;5.980;2024-01-10T06:58:41;103055.31;;;-4.29;59.46
69574;BME280;62840;52.366;5.980;2024-01-10T07:01:11;103060.56;;;-4.28;59.61
69574;BME280;62840;52.366;5.980;2024-01-10T07:03:37;103054.50;;;-4.25;59.74
69574;BME280;62840;52.366;5.980;2024-01-10T07:06:03;103056.25;;;-4.24;59.38
69574;BME280;62840;52.366;5.980;2024-01-10T07:08:30;103062.31;;;-4.25;59.58
69574;BME280;62840;52.366;5.980;2024-01-10T07:10:56;103058.00;;;-4.23;59.45
69574;BME280;62840;52.366;5.980;2024-01-10T07:13:22;103056.25;;;-4.24;59.30
69574;BME280;62840;52.366;5.980;2024-01-10T07:15:50;103059.72;;;-4.25;59.50
69574;BME280;62840;52.366;5.980;2024-01-10T07:18:16;103052.75;;;-4.26;59.34
69574;BME280;62840;52.366;5.980;2024-01-10T07:20:42;103053.59;;;-4.27;59.30
69574;BME280;62840;52.366;5.980;2024-01-10T07:23:08;103047.53;;;-4.28;59.23
69574;BME280;62840;52.366;5.980;2024-01-10T07:25:33;103059.69;;;-4.28;59.14
69574;BME280;62840;52.366;5.980;2024-01-10T07:27:59;103051.00;;;-4.27;59.22
69574;BME280;62840;52.366;5.980;2024-01-10T07:30:26;103064.03;;;-4.27;59.08
69574;BME280;62840;52.366;5.980;2024-01-10T07:32:54;103051.00;;;-4.27;59.04
69574;BME280;62840;52.366;5.980;2024-01-10T07:35:20;103061.41;;;-4.27;59.15
69574;BME280;62840;52.366;5.980;2024-01-10T07:37:46;103056.25;;;-4.26;59.24
69574;BME280;62840;52.366;5.980;2024-01-10T07:40:12;103057.16;;;-4.24;59.05
69574;BME280;62840;52.366;5.980;2024-01-10T07:42:38;103053.66;;;-4.23;59.13
69574;BME280;62840;52.366;5.980;2024-01-10T07:45:05;103060.66;;;-4.22;59.15
69574;BME280;62840;52.366;5.980;2024-01-10T07:47:32;103056.31;;;-4.21;58.82
69574;BME280;62840;52.366;5.980;2024-01-10T07:50:00;103050.19;;;-4.23;58.83
69574;BME280;62840;52.366;5.980;2024-01-10T07:52:26;103054.53;;;-4.22;58.85
69574;BME280;62840;52.366;5.980;2024-01-10T07:54:52;103037.16;;;-4.23;58.72
69574;BME280;62840;52.366;5.980;2024-01-10T07:57:18;103061.53;;;-4.21;58.87
69574;BME280;62840;52.366;5.980;2024-01-10T07:59:47;103063.25;;;-4.20;58.74
69574;BME280;62840;52.366;5.980;2024-01-10T08:02:12;103056.34;;;-4.18;58.86
69574;BME280;62840;52.366;5.980;2024-01-10T08:04:38;103066.75;;;-4.18;59.08
69574;BME280;62840;52.366;5.980;2024-01-10T08:07:07;103070.22;;;-4.19;58.55
69574;BME280;62840;52.366;5.980;2024-01-10T08:09:33;103070.28;;;-4.16;58.91
69574;BME280;62840;52.366;5.980;2024-01-10T08:11:59;103075.50;;;-4.15;58.65
69574;BME280;62840;52.366;5.980;2024-01-10T08:14:25;103070.31;;;-4.13;58.64
69574;BME280;62840;52.366;5.980;2024-01-10T08:16:51;103082.53;;;-4.09;58.89
69574;BME280;62840;52.366;5.980;2024-01-10T08:19:16;103096.47;;;-4.07;59.04
69574;BME280;62840;52.366;5.980;2024-01-10T08:21:42;103084.28;;;-4.08;58.74
69574;BME280;62840;52.366;5.980;2024-01-10T08:24:11;103095.56;;;-4.09;58.80
69574;BME280;62840;52.366;5.980;2024-01-10T08:26:37;103089.50;;;-4.08;59.14
69574;BME280;62840;52.366;5.980;2024-01-10T08:29:03;103082.59;;;-4.06;58.90
69574;BME280;62840;52.366;5.980;2024-01-10T08:31:29;103080.88;;;-4.04;59.01
69574;BME280;62840;52.366;5.980;2024-01-10T08:33:55;103081.78;;;-4.00;58.98
69574;BME280;62840;52.366;5.980;2024-01-10T08:36:20;103080.03;;;-4.00;59.03
69574;BME280;62840;52.366;5.980;2024-01-10T08:38:46;103081.81;;;-3.99;58.95
69574;BME280;62840;52.366;5.980;2024-01-10T08:41:15;103086.16;;;-3.98;59.14
69574;BME280;62840;52.366;5.980;2024-01-10T08:43:41;103080.94;;;-3.98;59.09
69574;BME280;62840;52.366;5.980;2024-01-10T08:46:07;103082.72;;;-3.97;59.04
69574;BME280;62840;52.366;5.980;2024-01-10T08:48:34;103077.50;;;-3.97;59.21
69574;BME280;62840;52.366;5.980;2024-01-10T08:50:59;103077.53;;;-3.94;59.11
69574;BME280;62840;52.366;5.980;2024-01-10T08:53:25;103074.94;;;-3.94;58.71
69574;BME280;62840;52.366;5.980;2024-01-10T08:55:51;103075.81;;;-3.91;58.89
69574;BME280;62840;52.366;5.980;2024-01-10T08:58:20;103084.53;;;-3.89;59.39
69574;BME280;62840;52.366;5.980;2024-01-10T09:00:46;103079.38;;;-3.86;59.16
69574;BME280;62840;52.366;5.980;2024-01-10T09:03:12;103074.16;;;-3.86;59.19
69574;BME280;62840;52.366;5.980;2024-01-10T09:05:38;103075.06;;;-3.84;59.20
69574;BME280;62840;52.366;5.980;2024-01-10T09:08:04;103080.25;;;-3.84;59.16
69574;BME280;62840;52.366;5.980;2024-01-10T09:10:30;103076.81;;;-3.83;59.00
69574;BME280;62840;52.366;5.980;2024-01-10T09:12:58;103074.25;;;-3.80;59.26
69574;BME280;62840;52.366;5.980;2024-01-10T09:15:27;103074.25;;;-3.77;58.93
69574;BME280;62840;52.366;5.980;2024-01-10T09:17:53;103065.63;;;-3.73;58.92
69574;BME280;62840;52.366;5.980;2024-01-10T09:20:18;103078.72;;;-3.68;58.86
69574;BME280;62840;52.366;5.980;2024-01-10T09:22:44;103075.31;;;-3.64;58.72
69574;BME280;62840;52.366;5.980;2024-01-10T09:25:10;103069.25;;;-3.62;58.71
69574;BME280;62840;52.366;5.980;2024-01-10T09:27:36;103056.28;;;-3.59;58.59
69574;BME280;62840;52.366;5.980;2024-01-10T09:30:03;103065.00;;;-3.54;58.36
69574;BME280;62840;52.366;5.980;2024-01-10T09:32:32;103066.81;;;-3.49;58.22
69574;BME280;62840;52.366;5.980;2024-01-10T09:34:58;103055.56;;;-3.45;58.25
69574;BME280;62840;52.366;5.980;2024-01-10T09:37:24;103064.31;;;-3.40;58.43
69574;BME280;62840;52.366;5.980;2024-01-10T09:39:50;103059.09;;;-3.37;57.96
69574;BME280;62840;52.366;5.980;2024-01-10T09:42:16;103068.69;;;-3.36;57.84
69574;BME280;62840;52.366;5.980;2024-01-10T09:44:41;103055.69;;;-3.33;57.85
69574;BME280;62840;52.366;5.980;2024-01-10T09:47:09;103060.97;;;-3.27;57.86
69574;BME280;62840;52.366;5.980;2024-01-10T09:49:37;103057.50;;;-3.26;57.96
69574;BME280;62840;52.366;5.980;2024-01-10T09:52:04;103062.78;;;-3.20;57.58
69574;BME280;62840;52.366;5.980;2024-01-10T09:54:37;103064.56;;;-3.16;57.77
69574;BME280;62840;52.366;5.980;2024-01-10T09:57:05;103067.22;;;-3.11;57.71
69574;BME280;62840;52.366;5.980;2024-01-10T09:59:31;103075.09;;;-3.06;57.75
69574;BME280;62840;52.366;5.980;2024-01-10T10:01:57;103066.44;;;-3.02;57.74
69574;BME280;62840;52.366;5.980;2024-01-10T10:04:27;103059.53;;;-2.97;58.08
69574;BME280;62840;52.366;5.980;2024-01-10T10:07:01;103067.34;;;-2.97;57.91
69574;BME280;62840;52.366;5.980;2024-01-10T10:09:28;103064.75;;;-2.94;57.52
69574;BME280;62840;52.366;5.980;2024-01-10T10:11:54;103070.03;;;-2.91;57.32
69574;BME280;62840;52.366;5.980;2024-01-10T10:14:21;103068.34;;;-2.86;57.43
69574;BME280;62840;52.366;5.980;2024-01-10T10:16:46;103071.84;;;-2.81;57.44
69574;BME280;62840;52.366;5.980;2024-01-10T10:19:12;103063.19;;;-2.77;57.33
69574;BME280;62840;52.366;5.980;2024-01-10T10:21:47;103065.84;;;-2.72;57.15
69574;BME280;62840;52.366;5.980;2024-01-10T10:24:16;103066.75;;;-2.69;57.56
69574;BME280;62840;52.366;5.980;2024-01-10T10:26:42;103068.50;;;-2.64;57.60
69574;BME280;62840;52.366;5.980;2024-01-10T10:29:09;103063.34;;;-2.58;57.40
69574;BME280;62840;52.366;5.980;2024-01-10T10:31:35;103066.00;;;-2.55;57.15
69574;BME280;62840;52.366;5.980;2024-01-10T10:34:01;103065.13;;;-2.54;57.00
69574;BME280;62840;52.366;5.980;2024-01-10T10:36:27;103059.00;;;-2.53;56.79
69574;BME280;62840;52.366;5.980;2024-01-10T10:38:55;103054.72;;;-2.48;56.70
69574;BME280;62840;52.366;5.980;2024-01-10T10:41:29;103059.97;;;-2.45;56.71
69574;BME280;62840;52.366;5.980;2024-01-10T10:43:57;103057.38;;;-2.43;56.66
69574;BME280;62840;52.366;5.980;2024-01-10T10:46:26;103054.75;;;-2.40;56.65
69574;BME280;62840;52.366;5.980;2024-01-10T10:48:54;103054.78;;;-2.39;56.58
69574;BME280;62840;52.366;5.980;2024-01-10T10:51:27;103053.06;;;-2.34;56.16
69574;BME280;62840;52.366;5.980;2024-01-10T10:53:59;103058.31;;;-2.31;56.24
69574;BME280;62840;52.366;5.980;2024-01-10T10:56:29;103055.75;;;-2.26;56.46
69574;BME280;62840;52.366;5.980;2024-01-10T10:58:58;103047.06;;;-2.23;56.32
69574;BME280;62840;52.366;5.980;2024-01-10T11:01:27;103046.19;;;-2.19;56.32
69574;BME280;62840;52.366;5.980;2024-01-10T11:03:54;103042.72;;;-2.15;56.33
69574;BME280;62840;52.366;5.980;2024-01-10T11:06:21;103048.84;;;-2.12;56.30
69574;BME280;62840;52.366;5.980;2024-01-10T11:08:52;103039.28;;;-2.08;56.24
69574;BME280;62840;52.366;5.980;2024-01-10T11:11:39;103044.53;;;-2.05;56.45
69574;BME280;62840;52.366;5.980;2024-01-10T11:14:28;103044.53;;;-2.02;56.22
69574;BME280;62840;52.366;5.980;2024-01-10T11:17:26;103055.06;;;-1.96;56.25
69574;BME280;62840;52.366;5.980;2024-01-10T11:20:16;103049.81;;;-1.93;56.24
69574;BME280;62840;52.366;5.980;2024-01-10T11:23:06;103040.25;;;-1.91;55.81
69574;BME280;62840;52.366;5.980;2024-01-10T11:25:46;103042.91;;;-1.88;55.71
69574;BME280;62840;52.366;5.980;2024-01-10T11:28:15;103039.41;;;-1.84;56.15
69574;BME280;62840;52.366;5.980;2024-01-10T11:30:49;103046.41;;;-1.79;55.61
69574;BME280;62840;52.366;5.980;2024-01-10T11:33:21;103035.09;;;-1.75;55.74
69574;BME280;62840;52.366;5.980;2024-01-10T11:36:13;103036.84;;;-1.71;55.63
69574;BME280;62840;52.366;5.980;2024-01-10T11:38:41;103031.63;;;-1.71;55.57
69574;BME280;62840;52.366;5.980;2024-01-10T11:41:10;103029.88;;;-1.68;55.78
69574;BME280;62840;52.366;5.980;2024-01-10T11:43:39;103021.19;;;-1.64;55.31
69574;BME280;62840;52.366;5.980;2024-01-10T11:46:05;103029.94;;;-1.58;55.48
69574;BME280;62840;52.366;5.980;2024-01-10T11:48:32;103018.59;;;-1.56;55.37
69574;BME280;62840;52.366;5.980;2024-01-10T11:50:58;103017.75;;;-1.52;55.14
69574;BME280;62840;52.366;5.980;2024-01-10T11:53:43;103010.75;;;-1.50;55.25
69574;BME280;62840;52.366;5.980;2024-01-10T11:56:10;103014.25;;;-1.46;54.81
69574;BME280;62840;52.366;5.980;2024-01-10T11:58:57;103019.50;;;-1.43;55.06
69574;BME280;62840;52.366;5.980;2024-01-10T12:01:27;103011.66;;;-1.42;54.90
69574;BME280;62840;52.366;5.980;2024-01-10T12:03:54;103017.75;;;-1.39;54.81
69574;BME280;62840;52.366;5.980;2024-01-10T12:06:21;103018.66;;;-1.37;54.78
69574;BME280;62840;52.366;5.980;2024-01-10T12:08:48;103015.16;;;-1.33;54.59
69574;BME280;62840;52.366;5.980;2024-01-10T12:11:14;103016.91;;;-1.31;54.68
69574;BME280;62840;52.366;5.980;2024-01-10T12:13:40;103008.19;;;-1.28;54.09
69574;BME280;62840;52.366;5.980;2024-01-10T12:16:10;103004.69;;;-1.27;54.51
69574;BME280;62840;52.366;5.980;2024-01-10T12:18:37;103006.44;;;-1.23;54.13
69574;BME280;62840;52.366;5.980;2024-01-10T12:21:03;103011.72;;;-1.20;54.13
69574;BME280;62840;52.366;5.980;2024-01-10T12:23:29;103018.66;;;-1.16;54.32
69574;BME280;62840;52.366;5.980;2024-01-10T12:25:54;103012.56;;;-1.12;54.52
69574;BME280;62840;52.366;5.980;2024-01-10T12:28:20;103020.44;;;-1.09;54.12
69574;BME280;62840;52.366;5.980;2024-01-10T12:30:47;103009.09;;;-1.06;53.95
69574;BME280;62840;52.366;5.980;2024-01-10T12:33:16;103004.72;;;-1.03;53.92
69574;BME280;62840;52.366;5.980;2024-01-10T12:35:42;103008.22;;;-1.01;53.75
69574;BME280;62840;52.366;5.980;2024-01-10T12:38:10;102997.75;;;-0.97;53.79
69574;BME280;62840;52.366;5.980;2024-01-10T12:40:36;102998.63;;;-0.94;53.36
69574;BME280;62840;52.366;5.980;2024-01-10T12:43:03;102995.13;;;-0.93;53.01
69574;BME280;62840;52.366;5.980;2024-01-10T12:45:29;102996.00;;;-0.89;53.29
69574;BME280;62840;52.366;5.980;2024-01-10T12:47:55;102997.75;;;-0.88;53.41
69574;BME280;62840;52.366;5.980;2024-01-10T12:50:25;102994.25;;;-0.86;53.15